Time;durP1;ratioP1;P1;durP2;ratioP2;P2;SDS_P1;SDS_P2;PMS_P1;PMS_P2;Temp;Humidity;BMP_temperature;BMP_pressure;BME280_temperature;BME280_humidity;BME280_pressure;Samples;Min_cycle;Max_cycle;Signal;HPM_P1;HPM_P2
2020/12/24 00:00:15;;;;;;;28.10;18.37;;;;;;;6.00;88.96;98078.89;2086664;85;21293;-93
2020/12/24 00:03:19;;;;;;;25.32;19.25;;;;;;;5.96;89.04;98077.12;2124438;83;21135;-94
2020/12/24 00:06:20;;;;;;;23.67;17.37;;;;;;;5.95;89.00;98067.70;2088177;85;21310;-94
2020/12/24 00:09:22;;;;;;;28.45;18.48;;;;;;;5.90;89.01;98059.58;2124371;84;21264;-94
2020/12/24 00:12:23;;;;;;;25.85;18.52;;;;;;;5.85;89.00;98056.66;2131492;84;21259;-93
2020/12/24 00:15:26;;;;;;;20.82;15.10;;;;;;;5.84;89.06;98053.70;2124886;84;21282;-94
2020/12/24 00:18:28;;;;;;;26.27;18.20;;;;;;;5.84;89.04;98042.02;2125332;84;21269;-94
2020/12/24 00:21:29;;;;;;;20.35;14.70;;;;;;;5.82;89.05;98044.47;2132831;80;21471;-96
2020/12/24 00:24:32;;;;;;;22.98;14.70;;;;;;;5.74;89.12;98026.30;2116625;81;21277;-95
2020/12/24 00:27:33;;;;;;;17.80;13.32;;;;;;;5.75;89.14;98026.13;2110604;82;21237;-95
2020/12/24 00:30:35;;;;;;;19.90;14.93;;;;;;;5.71;89.02;98023.55;2110570;82;21166;-96
2020/12/24 00:33:40;;;;;;;18.62;13.35;;;;;;;5.68;89.08;98012.20;2107515;85;21178;-95
2020/12/24 00:36:42;;;;;;;18.23;12.63;;;;;;;5.62;89.19;98006.35;2107590;85;21326;-95
2020/12/24 00:39:43;;;;;;;19.57;14.75;;;;;;;5.59;89.34;98004.09;2106765;85;21182;-94
2020/12/24 00:42:45;;;;;;;15.50;13.30;;;;;;;5.59;89.32;98002.80;2107275;85;21170;-95
2020/12/24 00:45:46;;;;;;;21.05;15.00;;;;;;;5.59;89.50;98008.80;2108536;85;21153;-93
2020/12/24 00:48:48;;;;;;;23.27;16.35;;;;;;;5.59;89.59;98010.09;2110698;85;21253;-93
2020/12/24 00:51:49;;;;;;;18.77;13.55;;;;;;;5.59;89.54;98001.02;2090138;85;21285;-91
2020/12/24 00:54:51;;;;;;;21.55;15.43;;;;;;;5.61;89.48;98000.34;2109743;84;21281;-92
2020/12/24 00:57:52;;;;;;;21.40;14.05;;;;;;;5.68;89.61;98000.02;2107610;85;21285;-94
2020/12/24 01:00:54;;;;;;;18.42;14.15;;;;;;;5.72;89.46;97996.59;2107425;84;21453;-94
2020/12/24 01:03:56;;;;;;;21.70;14.20;;;;;;;5.71;89.59;97987.98;2108096;84;21753;-93
2020/12/24 01:06:57;;;;;;;20.27;13.32;;;;;;;5.73;89.56;97989.11;2108045;84;21276;-94
2020/12/24 01:09:59;;;;;;;21.23;15.15;;;;;;;5.75;89.39;97981.96;2107181;84;21321;-94
2020/12/24 01:13:00;;;;;;;20.48;14.03;;;;;;;5.80;89.46;97980.17;2108726;82;21253;-96
2020/12/24 01:16:04;;;;;;;21.48;14.20;;;;;;;5.83;89.54;97971.55;2110035;82;21493;-94
2020/12/24 01:19:05;;;;;;;19.67;14.33;;;;;;;5.83;89.44;97974.64;2107147;84;21292;-92
2020/12/24 01:22:07;;;;;;;21.15;14.50;;;;;;;5.84;89.39;97973.66;2106585;84;21312;-94
2020/12/24 01:25:08;;;;;;;18.17;13.68;;;;;;;5.89;89.42;97970.08;2106375;83;21379;-94
2020/12/24 01:28:10;;;;;;;23.60;15.32;;;;;;;5.95;89.41;97967.66;2106775;84;21284;-95
2020/12/24 01:31:14;;;;;;;20.55;14.00;;;;;;;6.02;89.48;97956.58;2106259;84;21648;-95
2020/12/24 01:34:16;;;;;;;18.42;14.83;;;;;;;6.01;89.44;97959.66;2109588;82;21159;-96
2020/12/24 01:37:17;;;;;;;18.60;14.13;;;;;;;6.03;89.48;97951.20;2132275;81;21188;-93
2020/12/24 01:40:19;;;;;;;17.55;14.35;;;;;;;6.06;89.48;97945.69;2129867;84;21307;-95
2020/12/24 01:43:23;;;;;;;19.07;14.70;;;;;;;6.12;89.58;97929.39;2093075;84;21296;-94
2020/12/24 01:46:24;;;;;;;17.50;14.03;;;;;;;6.19;89.67;97933.43;2126876;81;21602;-93
2020/12/24 01:49:26;;;;;;;26.62;15.65;;;;;;;6.21;89.59;97927.07;2124136;84;21748;-94
2020/12/24 01:52:27;;;;;;;21.62;14.80;;;;;;;6.26;89.57;97918.28;2123436;84;21280;-93
2020/12/24 01:55:29;;;;;;;20.68;15.08;;;;;;;6.33;89.68;97909.81;2123289;84;21292;-95
2020/12/24 01:58:30;;;;;;;22.85;16.55;;;;;;;6.38;89.68;97906.19;2123289;84;21709;-94
2020/12/24 02:01:34;;;;;;;22.15;16.05;;;;;;;6.45;89.95;97905.82;2123299;84;21759;-94
2020/12/24 02:04:35;;;;;;;24.32;16.12;;;;;;;6.51;90.14;97905.14;2123522;84;21299;-94
2020/12/24 02:07:37;;;;;;;27.17;16.95;;;;;;;6.56;90.00;97908.02;2123349;84;21628;-93
2020/12/24 02:10:39;;;;;;;25.43;17.00;;;;;;;6.67;90.16;97900.29;2123294;84;21320;-95
2020/12/24 02:13:41;;;;;;;26.60;16.50;;;;;;;6.73;90.05;97896.51;2093706;84;21606;-95
2020/12/24 02:16:43;;;;;;;25.57;16.40;;;;;;;6.81;90.17;97904.25;2123519;84;21292;-95
2020/12/24 02:19:44;;;;;;;24.30;16.87;;;;;;;6.87;90.02;97899.34;2123529;84;21934;-95
2020/12/24 02:22:46;;;;;;;25.15;17.25;;;;;;;6.92;90.01;97896.52;2123192;84;21295;-93
2020/12/24 02:25:50;;;;;;;26.37;18.25;;;;;;;6.98;89.98;97889.80;2126759;82;21178;-93
2020/12/24 02:28:54;;;;;;;25.55;17.82;;;;;;;7.04;90.05;97886.48;2134281;83;21284;-93
2020/12/24 02:31:56;;;;;;;22.35;17.32;;;;;;;7.10;89.98;97890.98;2134498;83;21341;-93
2020/12/24 02:34:58;;;;;;;28.67;16.67;;;;;;;7.14;89.92;97889.66;2134251;83;21305;-95
2020/12/24 02:38:00;;;;;;;23.57;17.27;;;;;;;7.16;89.87;97891.59;2134149;83;21309;-95
2020/12/24 02:41:01;;;;;;;26.05;18.10;;;;;;;7.21;89.91;97885.83;2134034;83;21304;-94
2020/12/24 02:44:03;;;;;;;25.48;17.87;;;;;;;7.27;89.92;97884.63;2133585;83;21723;-95
2020/12/24 02:47:05;;;;;;;29.00;18.05;;;;;;;7.33;89.87;97882.63;2133463;83;21182;-94
2020/12/24 02:50:07;;;;;;;23.50;17.17;;;;;;;7.36;89.89;97874.95;2133420;83;21170;-95
2020/12/24 02:53:08;;;;;;;25.52;18.77;;;;;;;7.37;89.87;97863.53;2133425;83;21179;-95
2020/12/24 02:56:10;;;;;;;25.23;18.23;;;;;;;7.39;89.80;97866.27;2133179;83;21202;-96
2020/12/24 02:59:11;;;;;;;22.40;17.70;;;;;;;7.45;89.92;97866.05;2133205;83;21157;-95
2020/12/24 03:02:13;;;;;;;25.90;19.00;;;;;;;7.48;89.91;97857.06;2133532;83;21162;-96
2020/12/24 03:05:14;;;;;;;27.77;19.07;;;;;;;7.51;90.08;97853.63;2132974;83;21186;-95
2020/12/24 03:08:16;;;;;;;28.85;19.57;;;;;;;7.58;90.31;97857.09;2106464;83;21337;-96
2020/12/24 03:11:17;;;;;;;29.20;21.77;;;;;;;7.68;90.53;97864.63;2133207;83;21166;-95
2020/12/24 03:14:19;;;;;;;28.38;19.10;;;;;;;7.78;90.76;97861.77;2170878;82;21147;-94
2020/12/24 03:17:21;;;;;;;34.98;20.12;;;;;;;7.88;90.99;97854.47;2170714;82;21293;-96
2020/12/24 03:20:25;;;;;;;35.28;21.00;;;;;;;7.97;91.19;97857.28;2129916;84;21326;-95
2020/12/24 03:23:27;;;;;;;30.23;20.60;;;;;;;8.06;91.35;97861.39;2129924;84;21178;-94
2020/12/24 03:26:28;;;;;;;43.28;26.15;;;;;;;8.15;91.40;97855.58;2127639;83;21331;-94
2020/12/24 03:29:30;;;;;;;39.10;23.32;;;;;;;8.27;91.66;97860.11;2126529;84;21352;-94
2020/12/24 03:32:31;;;;;;;30.75;18.77;;;;;;;8.37;91.84;97852.00;2126618;84;21288;-94
2020/12/24 03:35:33;;;;;;;28.95;18.67;;;;;;;8.51;91.92;97849.04;2126185;84;21288;-95
2020/12/24 03:38:35;;;;;;;25.17;16.67;;;;;;;8.59;91.88;97848.08;2126466;84;21323;-95
2020/12/24 03:41:37;;;;;;;45.10;28.70;;;;;;;8.67;91.83;97847.45;2127003;84;21280;-94
2020/12/24 03:44:38;;;;;;;35.13;22.35;;;;;;;8.74;91.84;97850.13;2128470;82;21181;-93
2020/12/24 03:47:40;;;;;;;26.73;17.25;;;;;;;8.79;91.88;97838.13;2126403;84;21288;-94
2020/12/24 03:50:44;;;;;;;21.37;14.07;;;;;;;8.79;91.70;97842.05;2126706;84;21279;-93
2020/12/24 03:53:45;;;;;;;19.40;13.45;;;;;;;8.83;91.87;97828.11;2126810;84;22334;-95
2020/12/24 03:56:47;;;;;;;17.37;12.58;;;;;;;8.87;91.95;97843.72;2125548;84;21727;-95
2020/12/24 03:59:49;;;;;;;18.42;13.55;;;;;;;8.93;91.83;97839.52;2125332;84;21311;-94
2020/12/24 04:02:50;;;;;;;20.05;15.60;;;;;;;8.95;91.89;97839.63;2128151;82;21308;-96
2020/12/24 04:05:52;;;;;;;21.12;12.73;;;;;;;8.96;91.87;97836.05;2129491;84;21173;-96
2020/12/24 04:08:55;;;;;;;16.65;11.12;;;;;;;9.00;91.82;97829.94;2126889;84;21154;-93
2020/12/24 04:11:59;;;;;;;14.93;12.30;;;;;;;9.06;91.98;97833.10;2124316;83;21150;-93
2020/12/24 04:15:01;;;;;;;17.87;12.15;;;;;;;9.11;91.86;97832.02;2125345;84;21327;-95
2020/12/24 04:18:06;;;;;;;14.10;10.75;;;;;;;9.16;91.84;97838.79;2123603;84;21198;-95
2020/12/24 04:21:07;;;;;;;12.23;10.43;;;;;;;9.22;91.82;97838.00;2127122;83;21174;-95
2020/12/24 04:24:09;;;;;;;13.48;8.80;;;;;;;9.29;91.74;97832.83;2128932;82;21118;-96
2020/12/24 04:27:13;;;;;;;11.65;8.63;;;;;;;9.35;91.72;97833.38;2113124;80;21269;-93
2020/12/24 04:30:15;;;;;;;11.95;8.63;;;;;;;9.41;91.73;97827.36;2100242;84;21324;-94
2020/12/24 04:33:16;;;;;;;12.63;9.05;;;;;;;9.44;91.62;97823.07;2099568;84;21325;-93
2020/12/24 04:36:18;;;;;;;12.78;9.13;;;;;;;9.46;91.55;97827.59;2084174;85;21630;-94
2020/12/24 04:39:19;;;;;;;9.60;8.58;;;;;;;9.52;91.53;97827.33;2084435;85;21138;-94
2020/12/24 04:42:21;;;;;;;11.85;8.43;;;;;;;9.57;91.42;97827.04;2084601;85;21131;-94
2020/12/24 04:45:23;;;;;;;13.22;9.28;;;;;;;9.60;91.40;97830.59;2107094;85;21158;-92
2020/12/24 04:48:25;;;;;;;9.70;7.75;;;;;;;9.61;91.27;97834.81;2088806;85;21283;-94
2020/12/24 04:51:26;;;;;;;11.15;8.33;;;;;;;9.60;91.10;97818.00;2106619;84;21312;-94
2020/12/24 04:54:28;;;;;;;10.43;7.87;;;;;;;9.59;90.97;97826.84;2105547;84;21312;-95
2020/12/24 04:57:30;;;;;;;11.38;8.38;;;;;;;9.55;91.04;97816.48;2105126;84;21315;-94
2020/12/24 05:00:31;;;;;;;12.15;8.63;;;;;;;9.61;91.04;97828.78;2105183;85;21288;-94
2020/12/24 05:03:33;;;;;;;11.80;9.00;;;;;;;9.59;90.97;97838.60;2105407;84;21304;-96
2020/12/24 05:06:35;;;;;;;11.88;8.73;;;;;;;9.56;90.97;97828.05;2084377;85;21162;-94
2020/12/24 05:09:37;;;;;;;10.00;8.53;;;;;;;9.55;90.97;97827.73;2105140;84;21293;-94
2020/12/24 05:12:39;;;;;;;12.23;9.40;;;;;;;9.57;90.85;97832.77;2084267;85;21150;-94
2020/12/24 05:15:41;;;;;;;12.60;9.05;;;;;;;9.52;90.80;97824.22;2084312;85;21182;-93
2020/12/24 05:18:43;;;;;;;10.93;8.90;;;;;;;9.48;90.90;97829.51;2105122;85;21308;-95
2020/12/24 05:21:46;;;;;;;11.68;8.28;;;;;;;9.44;90.84;97823.07;2104989;84;21186;-95
2020/12/24 05:24:48;;;;;;;9.78;8.35;;;;;;;9.42;90.91;97819.84;2104902;84;21216;-96
2020/12/24 05:27:50;;;;;;;14.28;8.75;;;;;;;9.45;91.00;97820.77;2101779;83;21337;-95
2020/12/24 05:30:52;;;;;;;11.08;8.63;;;;;;;9.46;91.02;97820.26;2101384;84;21718;-94
2020/12/24 05:33:53;;;;;;;12.63;9.40;;;;;;;9.45;90.95;97832.52;2101452;84;21313;-94
2020/12/24 05:36:55;;;;;;;12.63;10.18;;;;;;;9.43;90.90;97832.41;2102586;84;21166;-94
2020/12/24 05:39:57;;;;;;;17.77;11.70;;;;;;;9.41;90.87;97838.61;2105073;84;21555;-94
2020/12/24 05:42:59;;;;;;;16.77;11.35;;;;;;;9.44;90.85;97836.13;2103287;84;21317;-93
2020/12/24 05:46:01;;;;;;;16.75;10.15;;;;;;;9.46;90.86;97821.56;2102302;84;21297;-94
2020/12/24 05:49:03;;;;;;;16.65;10.18;;;;;;;9.49;90.89;97825.09;2102624;84;21277;-94
2020/12/24 05:52:05;;;;;;;17.12;10.68;;;;;;;9.50;90.73;97824.08;2102441;84;21298;-93
2020/12/24 05:55:07;;;;;;;13.75;9.38;;;;;;;9.49;90.53;97822.47;2047404;86;21275;-92
2020/12/24 05:58:09;;;;;;;14.43;10.10;;;;;;;9.50;90.54;97818.36;2105977;83;21127;-91
2020/12/24 06:01:11;;;;;;;13.53;10.58;;;;;;;9.48;90.49;97817.75;2106120;83;21178;-92
2020/12/24 06:04:12;;;;;;;13.08;10.23;;;;;;;9.40;90.49;97806.15;2105529;84;21193;-92
2020/12/24 06:07:14;;;;;;;17.50;11.80;;;;;;;9.40;90.46;97808.77;2047639;87;21200;-93
2020/12/24 06:10:16;;;;;;;17.87;12.18;;;;;;;9.37;90.35;97803.94;2046194;87;21318;-94
2020/12/24 06:13:17;;;;;;;16.40;11.40;;;;;;;9.33;90.37;97807.45;2101855;85;21167;-94
2020/12/24 06:16:19;;;;;;;18.62;11.15;;;;;;;9.33;90.48;97813.17;2101251;84;21304;-95
2020/12/24 06:19:23;;;;;;;16.48;12.15;;;;;;;9.30;90.45;97802.59;2101384;84;21170;-94
2020/12/24 06:22:25;;;;;;;15.63;11.40;;;;;;;9.24;90.33;97798.16;2079989;85;21293;-94
2020/12/24 06:25:27;;;;;;;12.80;10.70;;;;;;;9.23;90.34;97791.29;2101429;85;21300;-94
2020/12/24 06:28:28;;;;;;;11.35;9.83;;;;;;;9.21;90.35;97788.57;2115661;84;21335;-93
2020/12/24 06:31:30;;;;;;;15.32;10.68;;;;;;;9.19;90.43;97780.94;2117210;84;21197;-94
2020/12/24 06:34:31;;;;;;;14.70;11.08;;;;;;;9.16;90.32;97784.45;2117286;84;21174;-93
2020/12/24 06:37:33;;;;;;;15.43;11.20;;;;;;;9.10;90.23;97784.20;2117400;84;21158;-93
2020/12/24 06:40:35;;;;;;;13.48;10.20;;;;;;;9.06;90.28;97788.21;2117293;84;21334;-94
2020/12/24 06:43:37;;;;;;;15.78;10.50;;;;;;;9.06;90.33;97796.55;2117691;84;21177;-94
2020/12/24 06:46:39;;;;;;;15.55;10.80;;;;;;;9.06;90.46;97808.30;2117493;84;21324;-94
2020/12/24 06:49:40;;;;;;;15.35;11.18;;;;;;;9.04;90.43;97803.23;2117730;84;21300;-94
2020/12/24 06:52:42;;;;;;;17.67;10.48;;;;;;;9.00;90.30;97812.97;2119050;82;21285;-96
2020/12/24 06:55:44;;;;;;;15.38;10.82;;;;;;;8.98;90.31;97826.72;2121339;82;21209;-92
2020/12/24 06:58:45;;;;;;;17.57;12.10;;;;;;;8.97;90.37;97835.05;2093812;84;21300;-94
2020/12/24 07:01:47;;;;;;;15.03;10.18;;;;;;;8.96;90.48;97833.91;2118484;84;21665;-94
2020/12/24 07:04:48;;;;;;;19.00;13.40;;;;;;;8.93;90.55;97837.72;2117431;84;21311;-94
2020/12/24 07:07:50;;;;;;;20.23;13.80;;;;;;;8.95;90.59;97835.72;2117235;84;21182;-94
2020/12/24 07:10:52;;;;;;;17.48;12.37;;;;;;;8.99;90.54;97838.27;2117230;84;21327;-93
2020/12/24 07:13:53;;;;;;;16.65;12.10;;;;;;;9.04;90.56;97838.49;2119566;82;21269;-95
2020/12/24 07:16:55;;;;;;;16.02;13.30;;;;;;;9.09;90.51;97835.33;2121124;82;21166;-89
2020/12/24 07:20:00;;;;;;;18.15;12.78;;;;;;;9.10;90.38;97853.41;2119199;84;21304;-90
2020/12/24 07:23:02;;;;;;;16.77;12.95;;;;;;;9.13;90.31;97850.41;2119387;84;21138;-93
2020/12/24 07:26:09;;;;;;;13.90;11.80;;;;;;;9.15;90.21;97855.46;2092072;83;21153;-90
2020/12/24 07:29:19;;;;;;;19.85;13.35;;;;;;;9.21;90.15;97855.98;2079979;85;21165;-93
2020/12/24 07:32:31;;;;;;;21.05;14.75;;;;;;;9.25;90.08;97865.06;2100426;84;21308;-91
2020/12/24 07:35:35;;;;;;;27.48;16.73;;;;;;;9.28;90.04;97856.03;2098966;84;21214;-91
2020/12/24 07:38:42;;;;;;;22.20;14.90;;;;;;;9.27;89.89;97851.31;2100045;84;21258;-96
2020/12/24 07:41:58;;;;;;;22.13;15.10;;;;;;;9.31;89.82;97849.91;2079750;84;21156;-93
2020/12/24 07:45:11;;;;;;;17.15;13.22;;;;;;;9.36;89.87;97858.50;2090899;80;21895;-95
2020/12/24 07:48:28;;;;;;;23.55;15.45;;;;;;;9.39;89.68;97850.27;2082658;85;21281;-93
2020/12/24 07:51:30;;;;;;;21.07;14.60;;;;;;;9.39;89.65;97848.95;2081498;86;21170;-92
2020/12/24 07:54:32;;;;;;;17.05;13.60;;;;;;;9.36;89.53;97837.09;2081430;85;21178;-93
2020/12/24 07:57:34;;;;;;;15.85;12.00;;;;;;;9.38;89.45;97835.59;2081756;86;21149;-93
2020/12/24 08:00:35;;;;;;;20.45;14.65;;;;;;;9.34;89.42;97819.51;2082154;85;21153;-92
2020/12/24 08:03:37;;;;;;;27.95;16.55;;;;;;;9.40;89.41;97819.21;2082298;86;21150;-91
2020/12/24 08:06:39;;;;;;;23.30;15.65;;;;;;;9.38;89.31;97821.22;2081912;85;21198;-92
2020/12/24 08:09:41;;;;;;;28.57;17.02;;;;;;;9.39;89.35;97818.91;2082455;86;21284;-90
2020/12/24 08:12:43;;;;;;;21.85;14.80;;;;;;;9.43;89.31;97825.38;2082831;85;21297;-91
2020/12/24 08:15:48;;;;;;;20.97;14.50;;;;;;;9.47;89.21;97816.14;2082570;85;21288;-93
2020/12/24 08:18:50;;;;;;;22.10;15.48;;;;;;;9.48;89.06;97822.97;2083223;85;21764;-92
2020/12/24 08:21:54;;;;;;;22.80;15.85;;;;;;;9.47;89.04;97815.34;2082808;85;21165;-90
2020/12/24 08:24:55;;;;;;;25.02;14.83;;;;;;;9.47;88.91;97820.56;2062170;86;21158;-91
2020/12/24 08:27:57;;;;;;;22.15;14.83;;;;;;;9.46;88.88;97821.06;2081488;86;21165;-91
2020/12/24 08:30:59;;;;;;;23.05;16.17;;;;;;;9.45;88.80;97816.03;2083820;86;21154;-90
2020/12/24 08:34:04;;;;;;;24.23;16.93;;;;;;;9.45;88.90;97816.84;2065116;86;21162;-92
2020/12/24 08:37:06;;;;;;;25.12;17.20;;;;;;;9.46;88.94;97825.48;2081946;85;21186;-91
2020/12/24 08:40:09;;;;;;;20.00;15.32;;;;;;;9.46;88.88;97821.06;2081669;86;21332;-92
2020/12/24 08:43:11;;;;;;;22.25;15.50;;;;;;;9.48;88.76;97824.78;2062337;86;21331;-92
2020/12/24 08:46:13;;;;;;;21.90;15.63;;;;;;;9.51;88.76;97821.30;2081202;84;21142;-92
2020/12/24 08:49:14;;;;;;;23.45;16.37;;;;;;;9.52;88.72;97818.99;2081508;85;21199;-92
2020/12/24 08:52:17;;;;;;;24.87;16.25;;;;;;;9.53;88.71;97816.68;2061879;86;21284;-91
2020/12/24 08:55:19;;;;;;;19.42;14.05;;;;;;;9.52;88.54;97818.99;2081432;86;21331;-94
2020/12/24 08:58:20;;;;;;;20.68;15.50;;;;;;;9.53;88.45;97822.41;2081654;85;21190;-92
2020/12/24 09:01:24;;;;;;;20.72;15.05;;;;;;;9.54;88.52;97830.05;2081837;85;21320;-92
2020/12/24 09:04:26;;;;;;;22.62;14.87;;;;;;;9.54;88.47;97822.21;2081721;86;21173;-93
2020/12/24 09:07:27;;;;;;;20.30;14.38;;;;;;;9.57;88.36;97823.62;2081597;86;21293;-91
2020/12/24 09:10:30;;;;;;;21.07;14.40;;;;;;;9.57;88.37;97819.70;2081364;86;21165;-92
2020/12/24 09:13:32;;;;;;;19.65;12.88;;;;;;;9.60;88.23;97818.00;2082195;85;21288;-92
2020/12/24 09:16:33;;;;;;;19.90;14.03;;;;;;;9.64;88.26;97823.95;2081514;86;21296;-92
2020/12/24 09:19:35;;;;;;;20.37;14.00;;;;;;;9.66;88.16;97825.06;2081478;86;21153;-95
2020/12/24 09:22:36;;;;;;;19.23;14.35;;;;;;;9.65;88.10;97823.45;2081387;85;21173;-92
2020/12/24 09:25:38;;;;;;;18.85;14.18;;;;;;;9.65;88.11;97817.73;2081244;86;21328;-91
2020/12/24 09:28:40;;;;;;;20.68;13.85;;;;;;;9.69;88.05;97817.66;2061999;86;22082;-93
2020/12/24 09:31:42;;;;;;;19.23;14.38;;;;;;;9.72;87.98;97814.34;2081340;85;21171;-93
2020/12/24 09:34:44;;;;;;;18.15;12.98;;;;;;;9.74;87.85;97813.64;2081269;85;22323;-92
2020/12/24 09:37:46;;;;;;;17.98;14.10;;;;;;;9.71;87.85;97809.62;2081409;85;21307;-92
2020/12/24 09:40:48;;;;;;;22.13;14.53;;;;;;;9.72;87.88;97812.53;2085053;86;21328;-92
2020/12/24 09:43:49;;;;;;;109.17;51.88;;;;;;;9.75;87.77;97799.06;2083017;86;21257;-95
2020/12/24 09:46:54;;;;;;;82.30;39.80;;;;;;;9.77;87.65;97806.20;2085450;85;21437;-92
2020/12/24 09:49:58;;;;;;;50.33;22.42;;;;;;;9.79;87.62;97802.91;2085959;85;21256;-94
2020/12/24 09:53:01;;;;;;;31.25;16.70;;;;;;;9.80;87.49;97809.75;2084364;85;21304;-92
2020/12/24 09:56:03;;;;;;;27.20;15.53;;;;;;;9.78;87.35;97805.20;2083592;86;21324;-93
2020/12/24 09:59:08;;;;;;;25.92;14.33;;;;;;;9.81;87.29;97807.44;2042212;86;21162;-93
2020/12/24 10:02:15;;;;;;;59.88;27.93;;;;;;;9.84;87.28;97810.95;2068122;80;21273;-94
2020/12/24 10:05:23;;;;;;;184.15;63.78;;;;;;;9.87;87.26;97814.48;2099405;83;21113;-96
2020/12/24 10:08:26;;;;;;;66.33;24.87;;;;;;;9.88;87.16;97806.16;2100645;79;21250;-94
2020/12/24 10:11:29;;;;;;;36.08;17.10;;;;;;;9.86;86.94;97802.41;2075780;82;21168;-95
2020/12/24 10:14:32;;;;;;;31.50;16.20;;;;;;;9.88;86.75;97802.23;2116268;83;21177;-94
2020/12/24 10:17:34;;;;;;;31.85;15.93;;;;;;;9.89;86.92;97803.34;2102476;85;21272;-94
2020/12/24 10:20:36;;;;;;;30.72;15.05;;;;;;;9.89;86.71;97791.58;2102571;85;21300;-92
2020/12/24 10:23:37;;;;;;;30.10;15.83;;;;;;;9.90;86.82;97789.77;2102809;85;21278;-91
2020/12/24 10:26:41;;;;;;;161.03;59.35;;;;;;;9.88;86.58;97787.86;2103850;85;21288;-90
2020/12/24 10:30:02;;;;;;;99.67;35.13;;;;;;;9.90;86.59;97785.84;2102697;85;21285;-89
2020/12/24 10:33:16;;;;;;;66.33;25.52;;;;;;;9.93;86.66;97785.44;2103271;85;21154;-91
2020/12/24 10:36:22;;;;;;;41.98;19.10;;;;;;;9.97;86.80;97780.94;2102619;85;21296;-90
2020/12/24 10:39:23;;;;;;;42.95;19.05;;;;;;;10.01;86.69;97781.84;2102748;85;21265;-91
2020/12/24 10:42:27;;;;;;;37.65;19.70;;;;;;;10.04;86.69;97781.44;2102767;85;21168;-92
2020/12/24 10:45:29;;;;;;;42.55;18.77;;;;;;;10.06;86.60;97777.64;2102171;85;21299;-90
2020/12/24 10:48:31;;;;;;;29.72;16.60;;;;;;;10.07;86.51;97763.55;2102863;85;21146;-92
2020/12/24 10:51:32;;;;;;;53.28;27.45;;;;;;;10.09;86.56;97757.61;2102192;85;21309;-92
2020/12/24 10:54:36;;;;;;;143.20;52.73;;;;;;;10.06;86.47;97753.27;2102030;85;21304;-93
2020/12/24 10:57:38;;;;;;;70.00;27.20;;;;;;;10.04;86.63;97751.36;2102190;85;21280;-92
2020/12/24 11:00:40;;;;;;;49.38;20.25;;;;;;;10.02;86.56;97750.25;2102374;85;21304;-94
2020/12/24 11:03:51;;;;;;;40.85;17.48;;;;;;;10.02;86.65;97753.37;2101868;85;21166;-92
2020/12/24 11:06:53;;;;;;;40.52;17.80;;;;;;;10.05;86.86;97749.05;2102571;85;21162;-94
2020/12/24 11:09:58;;;;;;;25.77;15.23;;;;;;;10.04;86.94;97747.44;2103813;83;21182;-93
2020/12/24 11:13:00;;;;;;;31.07;15.93;;;;;;;10.08;87.17;97732.97;2103981;85;21260;-92
2020/12/24 11:16:03;;;;;;;23.47;13.62;;;;;;;10.12;87.24;97728.44;2103015;85;21606;-95
2020/12/24 11:19:05;;;;;;;18.80;12.58;;;;;;;10.16;86.73;97730.16;2102748;85;21312;-94
2020/12/24 11:22:07;;;;;;;33.90;20.68;;;;;;;10.17;87.04;97725.23;2102303;85;21765;-92
2020/12/24 11:25:08;;;;;;;43.08;23.95;;;;;;;10.18;87.30;97718.48;2103575;85;21182;-91
2020/12/24 11:28:13;;;;;;;45.60;26.30;;;;;;;10.18;86.83;97712.45;2102896;85;21277;-93
2020/12/24 11:31:18;;;;;;;35.78;20.90;;;;;;;10.28;87.50;97706.84;2079523;85;21162;-91
2020/12/24 11:34:19;;;;;;;25.92;17.15;;;;;;;10.31;86.65;97709.85;2102064;85;21288;-94
2020/12/24 11:37:23;;;;;;;28.65;16.32;;;;;;;10.35;86.92;97710.27;2103110;85;21296;-91
2020/12/24 11:40:26;;;;;;;28.62;16.77;;;;;;;10.29;86.27;97706.64;2103654;85;21296;-88
2020/12/24 11:43:27;;;;;;;25.70;15.15;;;;;;;10.21;86.17;97698.95;2057504;85;21154;-91
2020/12/24 11:46:29;;;;;;;22.60;13.90;;;;;;;10.21;86.21;97700.27;2102776;85;21163;-92
2020/12/24 11:49:31;;;;;;;19.65;13.55;;;;;;;10.25;86.58;97693.67;2102280;85;21170;-91
2020/12/24 11:52:33;;;;;;;21.68;14.05;;;;;;;10.30;86.31;97687.81;2102523;85;21130;-92
2020/12/24 11:55:34;;;;;;;36.23;20.27;;;;;;;10.28;86.45;97686.72;2104323;85;21587;-91
2020/12/24 11:58:36;;;;;;;25.88;13.85;;;;;;;10.32;86.89;97680.06;2104065;85;21289;-92
2020/12/24 12:01:42;;;;;;;21.07;13.50;;;;;;;10.44;86.33;97676.34;2104023;85;21269;-90
2020/12/24 12:04:48;;;;;;;20.88;13.38;;;;;;;10.48;86.10;97671.80;2080205;85;21260;-89
2020/12/24 12:07:48;;;;;;;22.82;13.45;;;;;;;10.51;85.76;97669.27;2102568;85;21727;-89
2020/12/24 12:10:50;;;;;;;21.25;14.63;;;;;;;10.44;85.79;97663.27;2107727;83;21696;-89
2020/12/24 12:13:51;;;;;;;17.98;11.63;;;;;;;10.39;85.78;97664.36;2120373;84;21589;-94
2020/12/24 12:17:05;;;;;;;19.98;10.82;;;;;;;10.40;85.97;97650.27;2120281;83;21700;-95
2020/12/24 12:20:08;;;;;;;16.40;11.45;;;;;;;10.32;85.52;97674.83;2119854;84;21295;-90
2020/12/24 12:26:49;;;;;;;18.27;11.70;;;;;;;10.25;85.69;97657.84;2059351;85;21316;-95
2020/12/24 12:29:51;;;;;;;27.02;16.80;;;;;;;10.20;85.99;97662.03;2083582;85;21262;-92
2020/12/24 12:32:56;;;;;;;27.98;14.58;;;;;;;10.18;85.82;97653.09;2079240;85;21217;-93
2020/12/24 12:36:00;;;;;;;17.37;10.18;;;;;;;10.17;85.94;97656.72;2084738;85;21604;-92
2020/12/24 12:39:03;;;;;;;22.98;12.07;;;;;;;10.16;85.91;97658.23;2090889;83;21289;-94
2020/12/24 12:56:58;;;;;;;18.55;12.82;;;;;;;10.06;85.89;97640.80;2118581;81;21114;-94
2020/12/24 13:00:04;;;;;;;17.50;12.90;;;;;;;9.99;85.97;97646.06;2189911;79;21166;-89
2020/12/24 13:03:12;;;;;;;25.52;14.53;;;;;;;9.90;86.03;97655.91;2190572;81;21443;-89
2020/12/24 13:06:18;;;;;;;25.45;14.47;;;;;;;9.85;86.05;97660.12;2146375;81;21178;-88
2020/12/24 13:09:21;;;;;;;24.55;13.13;;;;;;;9.84;86.25;97654.09;2188717;81;21723;-88
2020/12/24 13:12:28;;;;;;;20.55;12.33;;;;;;;9.83;86.15;97660.32;2188804;81;21218;-88
2020/12/24 13:15:51;;;;;;;20.72;12.75;;;;;;;9.77;86.16;97660.31;2190339;81;21195;-91
2020/12/24 13:18:55;;;;;;;18.27;12.18;;;;;;;9.72;86.27;97653.58;2188642;81;21292;-91
2020/12/24 13:21:57;;;;;;;20.72;14.05;;;;;;;9.68;86.38;97647.42;2189657;81;21189;-92
2020/12/24 13:25:00;;;;;;;23.20;14.33;;;;;;;9.66;86.52;97642.10;2162514;81;21689;-87
2020/12/24 13:28:09;;;;;;;19.48;13.55;;;;;;;9.64;86.37;97632.36;2188534;81;21241;-92
2020/12/24 13:31:17;;;;;;;17.98;12.35;;;;;;;9.64;86.74;97620.59;2188844;81;21289;-87
2020/12/24 13:34:25;;;;;;;23.52;15.83;;;;;;;9.62;86.38;97612.96;2188890;81;21672;-92
2020/12/24 13:37:28;;;;;;;23.92;14.70;;;;;;;9.60;86.27;97608.44;2188712;81;21278;-92
2020/12/24 13:40:30;;;;;;;22.30;12.73;;;;;;;9.63;86.21;97594.16;2188548;81;21200;-93
2020/12/24 13:43:32;;;;;;;20.17;13.90;;;;;;;9.63;86.26;97594.97;2166339;81;21579;-89
2020/12/24 13:46:34;;;;;;;25.25;17.70;;;;;;;9.61;85.95;97593.06;2189127;81;21769;-90
2020/12/24 13:49:39;;;;;;;24.47;13.72;;;;;;;9.55;85.86;97590.44;2189542;81;21264;-89
2020/12/24 13:52:41;;;;;;;24.10;14.20;;;;;;;9.52;85.75;97596.07;2189271;81;21301;-86
2020/12/24 13:55:45;;;;;;;26.05;14.78;;;;;;;9.49;85.73;97599.06;2185677;81;21162;-87
2020/12/24 13:58:47;;;;;;;23.42;14.18;;;;;;;9.43;85.71;97616.36;2194926;80;21274;-87
2020/12/24 14:01:49;;;;;;;26.45;16.80;;;;;;;9.42;85.87;97599.08;2188530;80;21706;-86
2020/12/24 14:04:57;;;;;;;20.62;14.23;;;;;;;9.40;85.92;97596.63;2203485;79;21256;-86
2020/12/24 14:08:04;;;;;;;25.70;16.80;;;;;;;9.35;85.95;97589.91;2203567;81;21271;-86
2020/12/24 14:11:14;;;;;;;26.07;16.07;;;;;;;9.29;85.88;97589.39;2203538;81;21687;-87
2020/12/24 14:14:23;;;;;;;22.90;14.80;;;;;;;9.23;85.99;97588.87;2203545;81;21279;-87
2020/12/24 14:17:26;;;;;;;23.98;15.48;;;;;;;9.19;86.07;97604.64;2203557;81;21137;-87
2020/12/24 14:20:29;;;;;;;25.00;14.63;;;;;;;9.16;86.12;97607.66;2203477;81;21165;-86
2020/12/24 14:23:32;;;;;;;22.93;14.55;;;;;;;9.11;86.03;97605.63;2177681;81;21264;-87
2020/12/24 14:26:34;;;;;;;19.80;14.63;;;;;;;9.05;86.11;97616.04;2203911;81;21255;-86